Time;durP1;ratioP1;P1;durP2;ratioP2;P2;SDS_P1;SDS_P2;PMS_P1;PMS_P2;Temp;Humidity;BMP_temperature;BMP_pressure;BME280_temperature;BME280_humidity;BME280_pressure;Samples;Min_cycle;Max_cycle;Signal;HPM_P1;HPM_P2
2023/12/10 00:00:47;;;;;;;29.10;6.53;;;10.00;99.90;;;;;;5094911;28;20633;-79
2023/12/10 00:03:12;;;;;;;24.13;5.23;;;10.00;99.90;;;;;;5094130;28;20177;-79
2023/12/10 00:05:38;;;;;;;28.20;6.17;;;9.90;99.90;;;;;;5094891;28;20254;-79
2023/12/10 00:08:03;;;;;;;29.60;5.40;;;9.90;99.90;;;;;;5093777;28;20186;-79
2023/12/10 00:10:29;;;;;;;27.07;4.77;;;9.90;99.90;;;;;;5095354;28;20185;-80
2023/12/10 00:12:54;;;;;;;18.43;4.77;;;9.90;99.90;;;;;;5095378;28;20242;-80
2023/12/10 00:15:20;;;;;;;24.33;4.77;;;9.90;99.90;;;;;;5094457;28;20174;-80
2023/12/10 00:17:46;;;;;;;23.13;5.33;;;9.90;99.90;;;;;;5094408;28;20202;-80
2023/12/10 00:20:11;;;;;;;20.23;4.97;;;9.80;99.90;;;;;;5094256;28;20271;-79
2023/12/10 00:22:37;;;;;;;28.67;5.93;;;9.70;99.90;;;;;;5096026;28;20171;-79
2023/12/10 00:25:03;;;;;;;31.67;5.80;;;9.80;99.90;;;;;;5094171;28;20174;-79
2023/12/10 00:27:28;;;;;;;24.50;4.97;;;9.70;99.90;;;;;;5095513;28;20216;-79
2023/12/10 00:29:54;;;;;;;31.70;5.73;;;9.70;99.90;;;;;;5093956;28;20221;-80
2023/12/10 00:32:19;;;;;;;25.30;5.77;;;9.80;99.90;;;;;;5095745;28;20182;-80
2023/12/10 00:34:45;;;;;;;24.33;4.97;;;9.90;99.90;;;;;;5095886;28;20603;-80
2023/12/10 00:37:10;;;;;;;24.97;5.27;;;9.80;99.90;;;;;;5094118;28;20586;-80
2023/12/10 00:39:37;;;;;;;33.03;6.30;;;9.80;99.90;;;;;;5095441;28;20174;-80
2023/12/10 00:42:03;;;;;;;33.67;5.50;;;9.70;99.90;;;;;;5095743;28;20744;-80
2023/12/10 00:44:28;;;;;;;25.10;5.30;;;9.70;99.90;;;;;;5094368;28;20213;-81
2023/12/10 00:46:54;;;;;;;27.73;5.50;;;9.70;99.90;;;;;;5094907;28;20202;-80
2023/12/10 00:49:19;;;;;;;30.63;6.33;;;9.70;99.90;;;;;;5094407;28;20177;-80
2023/12/10 00:51:45;;;;;;;25.77;5.20;;;9.70;99.90;;;;;;5094414;28;20174;-80
2023/12/10 00:54:10;;;;;;;24.30;5.77;;;9.80;99.90;;;;;;5095016;28;20272;-80
2023/12/10 00:56:36;;;;;;;28.80;6.30;;;9.80;99.90;;;;;;5095046;28;20277;-80
2023/12/10 00:59:02;;;;;;;28.80;5.40;;;9.90;99.90;;;;;;5095081;28;20170;-80
2023/12/10 01:01:27;;;;;;;28.57;5.77;;;9.80;99.90;;;;;;5093705;28;20174;-80
2023/12/10 01:03:53;;;;;;;27.63;5.73;;;9.80;99.90;;;;;;5093509;28;20174;-80
2023/12/10 01:06:19;;;;;;;35.20;5.90;;;9.80;99.90;;;;;;5093343;28;20197;-79
2023/12/10 01:08:44;;;;;;;27.10;5.53;;;9.80;99.90;;;;;;5092291;28;20264;-79
2023/12/10 01:11:10;;;;;;;24.30;5.23;;;9.80;99.90;;;;;;5092262;28;20182;-78
2023/12/10 01:13:35;;;;;;;28.37;5.40;;;9.80;99.90;;;;;;5094094;28;20190;-80
2023/12/10 01:16:03;;;;;;;20.10;5.07;;;9.80;99.90;;;;;;5092579;28;20200;-80
2023/12/10 01:18:28;;;;;;;24.80;5.40;;;9.90;99.90;;;;;;5093287;28;20173;-80
2023/12/10 01:20:54;;;;;;;25.40;5.33;;;10.00;99.90;;;;;;5092784;28;20174;-80
2023/12/10 01:23:20;;;;;;;26.60;5.33;;;10.00;99.90;;;;;;5092968;28;20181;-80
2023/12/10 01:25:45;;;;;;;31.83;5.90;;;10.10;99.90;;;;;;5092631;28;20174;-80
2023/12/10 01:28:12;;;;;;;29.10;5.90;;;10.00;99.90;;;;;;5092444;28;20503;-80
2023/12/10 01:30:37;;;;;;;27.23;6.20;;;9.90;99.90;;;;;;5094237;28;20210;-77
2023/12/10 01:33:03;;;;;;;23.23;5.60;;;10.00;99.90;;;;;;5094370;28;20561;-81
2023/12/10 01:35:29;;;;;;;27.33;5.57;;;10.10;99.90;;;;;;5094114;28;20552;-80
2023/12/10 01:37:55;;;;;;;24.77;4.90;;;10.00;99.90;;;;;;5094485;28;20192;-80
2023/12/10 01:40:21;;;;;;;31.80;6.40;;;10.00;99.90;;;;;;5093619;28;20658;-79
2023/12/10 01:42:47;;;;;;;21.20;4.87;;;10.00;99.90;;;;;;5094591;28;20193;-80
2023/12/10 01:45:13;;;;;;;30.03;5.10;;;10.20;99.90;;;;;;5094385;28;20606;-81
2023/12/10 01:47:41;;;;;;;26.17;5.03;;;10.20;99.90;;;;;;5095055;28;20595;-80
2023/12/10 01:50:12;;;;;;;29.43;5.50;;;10.20;99.90;;;;;;5095157;28;20177;-80
2023/12/10 01:52:38;;;;;;;34.30;6.00;;;10.20;99.90;;;;;;5093223;28;20170;-79
2023/12/10 01:55:05;;;;;;;25.90;5.07;;;10.30;99.90;;;;;;5094632;28;20198;-80
2023/12/10 01:57:33;;;;;;;23.30;4.40;;;10.20;99.90;;;;;;5094671;28;20182;-80
2023/12/10 01:59:59;;;;;;;24.03;5.23;;;10.20;99.90;;;;;;5094036;28;20206;-80
2023/12/10 02:02:26;;;;;;;24.90;4.93;;;10.20;99.90;;;;;;5093413;28;20208;-81
2023/12/10 02:04:54;;;;;;;27.33;5.30;;;10.30;99.90;;;;;;5093815;28;20179;-80
2023/12/10 02:07:21;;;;;;;25.07;4.40;;;10.20;99.90;;;;;;5093864;28;20190;-79
2023/12/10 02:09:46;;;;;;;21.10;4.37;;;10.10;99.90;;;;;;5094543;28;20178;-79
2023/12/10 02:12:13;;;;;;;21.70;4.87;;;10.10;99.90;;;;;;5092939;28;20186;-80
2023/12/10 02:14:39;;;;;;;23.43;4.90;;;10.00;99.90;;;;;;5092351;28;20638;-79
2023/12/10 02:17:04;;;;;;;28.20;4.60;;;10.00;99.90;;;;;;5092322;28;20205;-80
2023/12/10 02:19:30;;;;;;;28.80;5.07;;;9.90;99.90;;;;;;5092400;28;20178;-79
2023/12/10 02:21:58;;;;;;;25.37;4.73;;;9.90;99.90;;;;;;5092308;28;20177;-80
2023/12/10 02:24:31;;;;;;;24.17;5.03;;;9.80;99.90;;;;;;5092225;28;20220;-79
2023/12/10 02:26:57;;;;;;;21.20;4.33;;;9.80;99.90;;;;;;5094615;28;20190;-81
2023/12/10 02:29:22;;;;;;;26.93;4.97;;;9.70;99.90;;;;;;5096559;28;20273;-81
2023/12/10 02:31:48;;;;;;;29.50;4.83;;;9.70;99.90;;;;;;5097627;28;20190;-80
2023/12/10 02:34:13;;;;;;;21.53;4.17;;;9.70;99.90;;;;;;5097518;28;20701;-81
2023/12/10 02:36:39;;;;;;;27.20;4.40;;;9.70;99.90;;;;;;5097408;28;20206;-79
2023/12/10 02:39:06;;;;;;;20.87;4.53;;;9.70;99.90;;;;;;5098025;28;20174;-79
2023/12/10 02:41:31;;;;;;;25.80;4.73;;;9.70;99.90;;;;;;5097661;28;20630;-80
2023/12/10 02:43:57;;;;;;;27.13;4.63;;;9.70;99.90;;;;;;5098457;28;20178;-80
2023/12/10 02:46:22;;;;;;;26.33;4.67;;;9.80;99.90;;;;;;5098327;28;20198;-80
2023/12/10 02:48:48;;;;;;;19.53;4.23;;;9.90;99.90;;;;;;5096410;28;20261;-80
2023/12/10 02:51:14;;;;;;;18.47;3.80;;;9.80;99.90;;;;;;5095893;28;20186;-79
2023/12/10 02:53:39;;;;;;;21.77;4.17;;;9.90;99.90;;;;;;5103560;28;20201;-79
2023/12/10 02:56:06;;;;;;;27.43;4.60;;;10.00;99.90;;;;;;5116151;28;20213;-79
2023/12/10 02:58:31;;;;;;;19.93;4.00;;;9.90;99.90;;;;;;5116461;28;20170;-80
2023/12/10 03:00:57;;;;;;;22.23;4.20;;;9.90;99.90;;;;;;5117011;28;20181;-79
2023/12/10 03:03:22;;;;;;;22.93;4.37;;;9.90;99.90;;;;;;5117689;28;20181;-80
2023/12/10 03:05:48;;;;;;;20.20;4.03;;;9.90;99.90;;;;;;5116384;28;20521;-79
2023/12/10 03:08:13;;;;;;;22.23;4.90;;;9.90;99.90;;;;;;5116336;28;20193;-80
2023/12/10 03:10:39;;;;;;;22.73;3.87;;;9.90;99.90;;;;;;5116732;28;20182;-80
2023/12/10 03:13:04;;;;;;;21.13;4.20;;;9.90;99.90;;;;;;5117847;28;20696;-80
2023/12/10 03:15:30;;;;;;;23.17;4.63;;;9.90;99.90;;;;;;5117462;28;20186;-79
2023/12/10 03:17:55;;;;;;;21.17;4.37;;;9.80;99.90;;;;;;5118292;28;20258;-80
2023/12/10 03:20:21;;;;;;;16.87;3.17;;;9.80;99.90;;;;;;5116342;28;20195;-80
2023/12/10 03:22:46;;;;;;;21.33;3.93;;;9.70;99.90;;;;;;5118224;28;20177;-79
2023/12/10 03:25:12;;;;;;;20.10;4.20;;;9.60;99.90;;;;;;5118066;28;20178;-79
2023/12/10 03:27:37;;;;;;;29.83;4.50;;;9.60;99.90;;;;;;5116810;28;20190;-80
2023/12/10 03:30:04;;;;;;;17.90;3.23;;;9.60;99.90;;;;;;5117103;28;20540;-80
2023/12/10 03:32:30;;;;;;;17.97;3.40;;;9.50;99.90;;;;;;5116826;28;20226;-81
2023/12/10 03:34:56;;;;;;;19.63;3.90;;;9.40;99.90;;;;;;5118369;28;20181;-80
2023/12/10 03:37:21;;;;;;;18.53;4.07;;;9.40;99.90;;;;;;5118892;28;20194;-80
2023/12/10 03:39:47;;;;;;;23.40;4.43;;;9.30;99.90;;;;;;5116016;28;20169;-80
2023/12/10 03:42:12;;;;;;;13.83;3.50;;;9.40;99.90;;;;;;5122910;28;20674;-81
2023/12/10 03:44:39;;;;;;;21.60;3.53;;;9.20;99.90;;;;;;5131130;28;20200;-81
2023/12/10 03:47:05;;;;;;;16.43;4.07;;;9.10;99.90;;;;;;5126553;28;20205;-81
2023/12/10 03:49:31;;;;;;;19.37;3.80;;;9.00;99.90;;;;;;5121292;28;20554;-81
2023/12/10 03:51:57;;;;;;;21.60;3.97;;;9.10;99.90;;;;;;5132072;28;20199;-82
2023/12/10 03:54:22;;;;;;;25.73;4.30;;;8.90;99.90;;;;;;5132068;28;20201;-81
2023/12/10 03:56:48;;;;;;;23.60;4.10;;;8.90;99.90;;;;;;5123457;28;20197;-81
2023/12/10 03:59:13;;;;;;;20.67;4.10;;;8.90;99.90;;;;;;5117746;28;20250;-79
2023/12/10 04:01:43;;;;;;;21.97;4.00;;;8.80;99.90;;;;;;5118108;28;20701;-80
2023/12/10 04:04:09;;;;;;;18.93;3.73;;;8.80;99.90;;;;;;5118187;28;20178;-80
2023/12/10 04:06:42;;;;;;;26.13;4.20;;;8.70;99.90;;;;;;5116575;28;20211;-79
2023/12/10 04:09:08;;;;;;;23.57;4.30;;;8.70;99.90;;;;;;5117008;28;20188;-81
2023/12/10 04:11:34;;;;;;;18.23;3.73;;;8.70;99.90;;;;;;5117284;28;20249;-80
2023/12/10 04:13:59;;;;;;;19.30;4.07;;;8.70;99.90;;;;;;5116547;28;20233;-81
2023/12/10 04:16:29;;;;;;;21.80;4.70;;;8.70;99.90;;;;;;5115282;28;20190;-79
2023/12/10 04:18:56;;;;;;;22.97;3.63;;;8.70;99.90;;;;;;5113936;28;20201;-80
2023/12/10 04:21:22;;;;;;;18.13;3.37;;;8.70;99.90;;;;;;5115260;28;20249;-80
2023/12/10 04:23:48;;;;;;;23.30;4.07;;;8.70;99.90;;;;;;5115246;28;20201;-80
2023/12/10 04:26:15;;;;;;;22.17;4.20;;;8.70;99.90;;;;;;5114125;28;20193;-80
2023/12/10 04:28:41;;;;;;;18.77;4.53;;;8.70;99.90;;;;;;5116112;28;20204;-80
2023/12/10 04:31:08;;;;;;;23.63;3.93;;;8.70;99.90;;;;;;5115738;28;20193;-80
2023/12/10 04:33:33;;;;;;;19.23;3.87;;;8.70;99.90;;;;;;5114962;28;20224;-80
2023/12/10 04:35:59;;;;;;;21.10;3.80;;;8.80;99.90;;;;;;5115225;28;20669;-80
2023/12/10 04:38:26;;;;;;;19.40;3.60;;;8.80;99.90;;;;;;5116387;28;20657;-81
2023/12/10 04:40:51;;;;;;;19.93;3.93;;;8.70;99.90;;;;;;5115400;28;20668;-81
2023/12/10 04:43:18;;;;;;;22.57;4.17;;;8.70;99.90;;;;;;5114783;28;20174;-80
2023/12/10 04:45:44;;;;;;;19.77;4.07;;;8.70;99.90;;;;;;5116563;28;20172;-80
2023/12/10 04:48:11;;;;;;;21.07;4.03;;;8.70;99.90;;;;;;5115102;28;20169;-80
2023/12/10 04:50:36;;;;;;;19.90;3.83;;;8.80;99.90;;;;;;5116572;28;20173;-81
2023/12/10 04:53:02;;;;;;;18.87;3.80;;;8.80;99.90;;;;;;5115225;28;20201;-80
2023/12/10 04:55:27;;;;;;;18.33;4.50;;;8.80;99.90;;;;;;5115053;28;20637;-80
2023/12/10 04:57:53;;;;;;;15.63;3.30;;;8.90;99.90;;;;;;5116973;28;20194;-80
2023/12/10 05:00:19;;;;;;;17.83;3.40;;;9.00;99.90;;;;;;5116071;28;20165;-80
2023/12/10 05:02:44;;;;;;;21.40;4.30;;;8.90;99.90;;;;;;5117101;28;20189;-79
2023/12/10 05:05:10;;;;;;;20.37;3.77;;;9.00;99.90;;;;;;5116539;28;20238;-80
2023/12/10 05:07:35;;;;;;;18.63;3.70;;;9.20;99.90;;;;;;5116282;28;20189;-80
2023/12/10 05:10:01;;;;;;;24.83;4.27;;;9.30;99.90;;;;;;5115083;28;20645;-80
2023/12/10 05:12:26;;;;;;;15.93;3.33;;;9.30;99.90;;;;;;5113931;28;20188;-80
2023/12/10 05:14:52;;;;;;;15.63;2.97;;;9.40;99.90;;;;;;5113862;28;20197;-80
2023/12/10 05:17:17;;;;;;;18.80;3.57;;;9.30;99.90;;;;;;5115489;28;20254;-80
2023/12/10 05:19:43;;;;;;;17.47;3.63;;;9.40;99.90;;;;;;5114241;28;20174;-79
2023/12/10 05:22:08;;;;;;;16.10;3.20;;;9.50;99.90;;;;;;5115347;28;20170;-80
2023/12/10 05:24:34;;;;;;;15.67;3.37;;;9.40;99.90;;;;;;5114286;28;20193;-80
2023/12/10 05:26:59;;;;;;;15.33;3.43;;;9.50;99.90;;;;;;5113930;28;20193;-80
2023/12/10 05:29:25;;;;;;;16.97;3.70;;;9.50;99.90;;;;;;5115097;28;20184;-80
2023/12/10 05:31:50;;;;;;;16.43;3.60;;;9.50;99.90;;;;;;5115469;28;20198;-79
2023/12/10 05:34:16;;;;;;;15.63;3.20;;;9.60;99.90;;;;;;5113800;28;20264;-78
2023/12/10 05:36:41;;;;;;;18.77;4.07;;;9.60;99.90;;;;;;5113454;28;20229;-81
2023/12/10 05:39:08;;;;;;;24.33;3.53;;;9.70;99.90;;;;;;5112650;28;20260;-80
2023/12/10 05:41:33;;;;;;;22.47;4.00;;;9.60;99.90;;;;;;5113397;28;20169;-81
2023/12/10 05:43:59;;;;;;;17.30;3.97;;;9.60;99.90;;;;;;5114024;28;20181;-81
2023/12/10 05:46:25;;;;;;;23.37;4.50;;;9.50;99.90;;;;;;5114150;28;20207;-80
2023/12/10 05:48:50;;;;;;;18.73;3.90;;;9.50;99.90;;;;;;5115760;28;20165;-81
2023/12/10 05:51:16;;;;;;;21.00;4.33;;;9.50;99.90;;;;;;5113713;28;20180;-81
2023/12/10 05:53:41;;;;;;;15.13;4.17;;;9.50;99.90;;;;;;5113779;28;20697;-80
2023/12/10 05:56:08;;;;;;;13.93;3.73;;;9.60;99.90;;;;;;5113554;28;20190;-80
2023/12/10 05:58:34;;;;;;;21.10;3.50;;;9.60;99.90;;;;;;5114364;28;20534;-80
2023/12/10 06:01:00;;;;;;;16.70;3.47;;;9.60;99.90;;;;;;5112587;28;20201;-79
2023/12/10 06:03:27;;;;;;;19.07;3.90;;;9.60;99.90;;;;;;5120851;28;20554;-80
2023/12/10 06:05:52;;;;;;;12.23;2.70;;;9.70;99.90;;;;;;5122408;27;20169;-79
2023/12/10 06:08:18;;;;;;;14.23;3.90;;;9.80;99.90;;;;;;5122043;28;20728;-79
2023/12/10 06:10:44;;;;;;;17.47;3.83;;;9.90;99.90;;;;;;5121433;27;20549;-79
2023/12/10 06:13:10;;;;;;;19.37;3.50;;;9.90;99.90;;;;;;5121557;28;20206;-80
2023/12/10 06:15:35;;;;;;;15.37;3.73;;;9.90;99.90;;;;;;5121582;28;20275;-79
2023/12/10 06:18:01;;;;;;;16.33;3.60;;;10.00;99.90;;;;;;5120133;28;20256;-79
2023/12/10 06:20:26;;;;;;;17.63;3.40;;;10.00;99.90;;;;;;5120336;28;20661;-80
2023/12/10 06:22:52;;;;;;;15.93;4.10;;;10.00;99.90;;;;;;5121841;28;20290;-79
2023/12/10 06:25:18;;;;;;;16.37;3.30;;;10.00;99.90;;;;;;5121012;27;20170;-80
2023/12/10 06:27:43;;;;;;;17.77;4.70;;;10.00;99.90;;;;;;5121111;28;20185;-79
2023/12/10 06:30:09;;;;;;;16.20;3.63;;;10.00;99.90;;;;;;5119602;28;20200;-81
2023/12/10 06:32:35;;;;;;;17.37;3.80;;;10.10;99.90;;;;;;5121806;27;20203;-79
2023/12/10 06:35:01;;;;;;;18.17;3.93;;;10.00;99.90;;;;;;5121130;28;20173;-78
2023/12/10 06:37:26;;;;;;;17.47;3.47;;;10.10;99.90;;;;;;5119387;28;20213;-80
2023/12/10 06:39:52;;;;;;;15.23;3.67;;;10.00;99.90;;;;;;5121425;28;20165;-80
2023/12/10 06:42:17;;;;;;;20.53;4.07;;;10.00;99.90;;;;;;5121772;28;20169;-81
2023/12/10 06:44:43;;;;;;;17.50;3.43;;;10.10;99.90;;;;;;5121932;28;20637;-79
2023/12/10 06:47:09;;;;;;;13.93;3.10;;;10.00;99.90;;;;;;5121509;28;20224;-80
2023/12/10 06:49:34;;;;;;;19.80;3.73;;;10.10;99.90;;;;;;5121450;28;20246;-80
2023/12/10 06:52:00;;;;;;;18.17;3.80;;;10.10;99.90;;;;;;5121235;28;20185;-79
2023/12/10 06:54:25;;;;;;;16.33;3.53;;;10.10;99.90;;;;;;5121135;28;20287;-79
2023/12/10 06:56:51;;;;;;;15.57;3.57;;;10.10;99.90;;;;;;5121395;28;20186;-78
2023/12/10 06:59:16;;;;;;;17.47;3.67;;;10.10;99.90;;;;;;5119593;28;20169;-80
2023/12/10 07:01:42;;;;;;;27.37;4.27;;;10.10;1.00;;;;;;5119210;28;20177;-80
2023/12/10 07:04:08;;;;;;;14.23;3.60;;;10.10;1.00;;;;;;5120662;28;20177;-80
2023/12/10 07:06:34;;;;;;;15.03;3.30;;;10.10;1.00;;;;;;5119545;28;20287;-79
2023/12/10 07:09:00;;;;;;;16.57;3.40;;;10.10;1.00;;;;;;5121182;27;20217;-80
2023/12/10 07:11:26;;;;;;;18.30;3.30;;;10.10;1.00;;;;;;5119971;28;20184;-80
2023/12/10 07:13:53;;;;;;;16.97;3.40;;;10.10;1.00;;;;;;5117807;28;20213;-80
2023/12/10 07:16:22;;;;;;;22.03;3.37;;;10.10;1.00;;;;;;5117005;28;20209;-80
2023/12/10 07:18:47;;;;;;;13.70;3.43;;;10.10;99.90;;;;;;5116320;28;20178;-79
2023/12/10 07:21:13;;;;;;;21.03;3.90;;;10.10;99.90;;;;;;5116716;28;20176;-81
2023/12/10 07:23:38;;;;;;;17.67;4.53;;;10.10;99.90;;;;;;5115027;28;20177;-80
2023/12/10 07:26:05;;;;;;;19.07;4.30;;;10.00;99.90;;;;;;5115016;28;20280;-80
2023/12/10 07:28:30;;;;;;;15.13;3.63;;;10.00;99.90;;;;;;5116157;28;20212;-80
2023/12/10 07:30:56;;;;;;;13.83;3.33;;;10.00;99.90;;;;;;5116298;28;20189;-79
2023/12/10 07:33:22;;;;;;;14.30;3.97;;;10.00;99.90;;;;;;5117225;28;20280;-80
2023/12/10 07:35:47;;;;;;;19.47;3.90;;;10.00;99.90;;;;;;5115918;28;20176;-80
2023/12/10 07:38:13;;;;;;;19.07;3.83;;;10.00;99.90;;;;;;5115929;28;20188;-80
2023/12/10 07:40:39;;;;;;;15.73;3.40;;;10.00;99.90;;;;;;5115994;28;20173;-79
2023/12/10 07:43:06;;;;;;;18.47;4.20;;;10.00;99.90;;;;;;5119380;28;20203;-80
2023/12/10 07:45:31;;;;;;;19.27;3.90;;;10.10;99.90;;;;;;5117295;28;20184;-80
2023/12/10 07:47:57;;;;;;;15.50;3.73;;;10.00;99.90;;;;;;5119040;28;20198;-81
2023/12/10 07:50:22;;;;;;;18.77;3.77;;;10.00;99.90;;;;;;5117729;28;20173;-79
2023/12/10 07:52:48;;;;;;;14.67;3.50;;;10.00;99.90;;;;;;5118577;28;20173;-81
2023/12/10 07:55:13;;;;;;;19.23;4.03;;;10.00;99.90;;;;;;5118163;28;20566;-81
2023/12/10 07:57:39;;;;;;;12.77;3.23;;;10.00;99.90;;;;;;5117555;28;20219;-80
2023/12/10 08:00:05;;;;;;;20.00;3.77;;;10.00;99.90;;;;;;5116961;28;20173;-80
2023/12/10 08:02:32;;;;;;;16.00;3.50;;;10.00;99.90;;;;;;5117869;28;20182;-80
2023/12/10 08:04:58;;;;;;;20.43;3.80;;;10.00;99.90;;;;;;5119268;28;20192;-80
2023/12/10 08:07:23;;;;;;;21.27;3.93;;;10.00;99.90;;;;;;5120958;28;20665;-80
2023/12/10 08:09:50;;;;;;;23.23;3.90;;;10.00;99.90;;;;;;5118498;28;20197;-80
2023/12/10 08:12:16;;;;;;;18.47;3.90;;;10.00;99.90;;;;;;5119824;28;20182;-79
2023/12/10 08:14:42;;;;;;;17.00;3.60;;;10.00;99.90;;;;;;5120490;28;20523;-78
2023/12/10 08:17:07;;;;;;;23.17;4.20;;;10.00;99.90;;;;;;5123059;28;20227;-78
2023/12/10 08:19:33;;;;;;;15.10;3.13;;;10.00;99.90;;;;;;5121432;28;20177;-78
2023/12/10 08:21:59;;;;;;;17.93;4.60;;;10.00;99.90;;;;;;5121302;28;20177;-78
2023/12/10 08:24:26;;;;;;;20.97;4.33;;;10.00;99.90;;;;;;5115808;28;20181;-78
2023/12/10 08:26:52;;;;;;;17.43;3.90;;;9.90;99.90;;;;;;5115839;28;20196;-78
2023/12/10 08:29:18;;;;;;;15.43;3.43;;;9.90;99.90;;;;;;5115785;28;20174;-78
2023/12/10 08:31:44;;;;;;;19.20;3.67;;;10.00;99.90;;;;;;5116153;28;20573;-79
2023/12/10 08:34:09;;;;;;;17.07;3.47;;;10.00;99.90;;;;;;5116507;28;20220;-81
2023/12/10 08:36:35;;;;;;;16.33;4.50;;;10.00;99.90;;;;;;5114633;28;20664;-81
2023/12/10 08:39:00;;;;;;;20.33;3.97;;;9.90;99.90;;;;;;5116366;28;20555;-80
2023/12/10 08:41:26;;;;;;;18.90;3.73;;;10.00;99.90;;;;;;5116556;28;20157;-80
2023/12/10 08:43:51;;;;;;;19.87;3.90;;;9.90;99.90;;;;;;5115327;28;20547;-80
2023/12/10 08:46:17;;;;;;;17.43;3.77;;;9.90;99.90;;;;;;5115385;28;20199;-80
2023/12/10 08:48:42;;;;;;;22.57;4.00;;;10.00;99.90;;;;;;5116858;28;20184;-81
2023/12/10 08:51:08;;;;;;;17.03;3.87;;;10.00;99.90;;;;;;5116413;28;20256;-80
2023/12/10 08:53:34;;;;;;;22.07;4.10;;;9.90;99.90;;;;;;5114174;28;20201;-79
2023/12/10 08:55:59;;;;;;;20.07;3.97;;;9.90;99.90;;;;;;5115906;28;20216;-80
2023/12/10 08:58:26;;;;;;;16.00;3.63;;;9.90;99.90;;;;;;5113662;28;20170;-79
2023/12/10 09:00:52;;;;;;;24.13;4.00;;;9.90;99.90;;;;;;5113496;28;20645;-79
2023/12/10 09:03:17;;;;;;;20.37;3.90;;;9.90;99.90;;;;;;5114961;28;20170;-79
2023/12/10 09:05:43;;;;;;;14.50;3.63;;;9.80;99.90;;;;;;5114286;28;20185;-80
2023/12/10 09:08:08;;;;;;;26.77;4.40;;;9.80;99.90;;;;;;5113401;28;20178;-80
2023/12/10 09:10:34;;;;;;;19.87;4.43;;;9.80;99.90;;;;;;5114231;28;20186;-80
2023/12/10 09:12:59;;;;;;;19.40;4.13;;;9.70;99.90;;;;;;5116349;28;20690;-80
2023/12/10 09:15:25;;;;;;;16.63;3.67;;;9.70;99.90;;;;;;5116599;28;20688;-81
2023/12/10 09:17:51;;;;;;;27.10;4.50;;;9.80;99.90;;;;;;5116287;28;20189;-81
2023/12/10 09:20:16;;;;;;;23.70;4.33;;;9.80;99.90;;;;;;5115086;28;20173;-81
2023/12/10 09:22:42;;;;;;;20.70;4.13;;;9.80;99.90;;;;;;5116385;28;20166;-80
2023/12/10 09:25:07;;;;;;;23.50;4.50;;;9.70;99.90;;;;;;5115710;28;20567;-81
2023/12/10 09:27:33;;;;;;;22.97;4.60;;;9.70;99.90;;;;;;5116159;28;20193;-81
2023/12/10 09:29:59;;;;;;;16.10;4.03;;;9.70;99.90;;;;;;5117009;28;20252;-81
2023/12/10 09:32:27;;;;;;;21.47;4.30;;;9.70;99.90;;;;;;5115255;28;20197;-80
2023/12/10 09:34:53;;;;;;;21.30;3.23;;;9.70;99.90;;;;;;5112617;28;20201;-81
2023/12/10 09:37:18;;;;;;;23.23;3.43;;;9.80;99.90;;;;;;5114011;28;20181;-80
2023/12/10 09:39:44;;;;;;;19.10;4.47;;;9.80;99.90;;;;;;5112329;28;20176;-81
2023/12/10 09:42:10;;;;;;;19.00;3.73;;;9.80;99.90;;;;;;5114339;28;20180;-81
2023/12/10 09:44:35;;;;;;;23.50;4.37;;;9.80;99.90;;;;;;5112622;28;20231;-81
2023/12/10 09:47:01;;;;;;;11.83;3.37;;;9.80;99.90;;;;;;5112642;28;20277;-81
2023/12/10 09:49:27;;;;;;;16.40;4.00;;;9.80;99.90;;;;;;5114962;28;20180;-81
2023/12/10 09:51:53;;;;;;;25.13;4.47;;;9.80;99.90;;;;;;5114846;28;20183;-82
2023/12/10 09:54:22;;;;;;;20.03;4.40;;;9.80;99.90;;;;;;5117315;28;20198;-82
2023/12/10 09:56:50;;;;;;;19.17;4.43;;;9.80;1.00;;;;;;5128478;28;20261;-82
2023/12/10 09:59:17;;;;;;;19.63;3.57;;;9.80;99.90;;;;;;5132225;28;20185;-81
2023/12/10 10:01:50;;;;;;;19.00;4.53;;;9.80;99.90;;;;;;5127235;28;20178;-81
2023/12/10 10:04:16;;;;;;;23.73;4.17;;;9.80;99.90;;;;;;5118436;28;20181;-80
2023/12/10 10:06:42;;;;;;;24.33;4.63;;;9.80;99.90;;;;;;5114583;28;20212;-82
2023/12/10 10:09:08;;;;;;;21.03;4.20;;;9.80;1.00;;;;;;5112844;28;20238;-77
2023/12/10 10:11:34;;;;;;;23.13;4.40;;;9.90;99.90;;;;;;5111951;28;20195;-78
2023/12/10 10:14:00;;;;;;;21.03;3.83;;;9.90;99.90;;;;;;5112913;28;20280;-78
2023/12/10 10:16:26;;;;;;;19.93;4.20;;;9.90;99.90;;;;;;5113069;28;20224;-78
2023/12/10 10:18:51;;;;;;;17.77;3.90;;;9.90;99.90;;;;;;5115143;28;20169;-78
2023/12/10 10:21:17;;;;;;;21.90;4.10;;;10.00;99.90;;;;;;5116768;28;20636;-77
2023/12/10 10:23:43;;;;;;;20.67;3.57;;;9.90;99.90;;;;;;5116753;28;20625;-77
2023/12/10 10:26:10;;;;;;;26.53;3.80;;;9.90;99.90;;;;;;5116024;28;20204;-78
2023/12/10 10:28:36;;;;;;;20.97;3.80;;;10.00;99.90;;;;;;5114366;28;20177;-77
2023/12/10 10:31:02;;;;;;;19.10;3.90;;;9.90;99.90;;;;;;5112504;28;20197;-78
2023/12/10 10:33:28;;;;;;;20.03;4.17;;;10.00;99.90;;;;;;5114671;28;20196;-78
2023/12/10 10:35:53;;;;;;;19.83;3.83;;;9.90;99.90;;;;;;5113977;28;20169;-78
2023/12/10 10:38:22;;;;;;;17.57;3.40;;;9.90;99.90;;;;;;5113200;28;20170;-78
2023/12/10 10:40:48;;;;;;;20.17;3.50;;;9.90;99.90;;;;;;5114502;28;20177;-78
2023/12/10 10:43:15;;;;;;;16.77;3.13;;;9.90;99.90;;;;;;5113465;28;20554;-78
2023/12/10 10:45:41;;;;;;;21.33;3.80;;;9.90;99.90;;;;;;5114117;28;20664;-77
2023/12/10 10:48:07;;;;;;;25.00;4.60;;;10.00;99.90;;;;;;5113688;28;20189;-78
2023/12/10 10:50:37;;;;;;;13.97;3.77;;;10.00;99.90;;;;;;5118716;28;20173;-78
2023/12/10 10:53:04;;;;;;;17.40;3.53;;;10.00;99.90;;;;;;5117989;27;20174;-78
2023/12/10 10:55:32;;;;;;;14.17;3.33;;;10.00;99.90;;;;;;5116520;28;20264;-78
2023/12/10 10:57:57;;;;;;;20.77;4.33;;;10.10;99.90;;;;;;5117601;28;20235;-78
2023/12/10 11:00:23;;;;;;;17.07;3.77;;;10.10;99.90;;;;;;5117998;28;20166;-78
2023/12/10 11:02:53;;;;;;;20.43;3.83;;;10.20;99.90;;;;;;5118411;28;20175;-78
2023/12/10 11:05:31;;;;;;;22.07;4.33;;;10.20;99.90;;;;;;5116448;28;20506;-77
2023/12/10 11:07:56;;;;;;;19.23;3.70;;;10.30;99.90;;;;;;5116003;28;20212;-78
2023/12/10 11:10:22;;;;;;;25.40;4.00;;;10.30;99.90;;;;;;5117428;28;20173;-77
2023/12/10 11:12:49;;;;;;;16.43;3.43;;;10.40;99.90;;;;;;5116674;28;20196;-79
2023/12/10 11:15:17;;;;;;;16.67;3.57;;;10.40;99.90;;;;;;5115391;28;20728;-77
2023/12/10 11:17:53;;;;;;;26.93;4.07;;;10.40;99.90;;;;;;5118657;28;20188;-78
2023/12/10 11:20:41;;;;;;;18.03;3.30;;;10.50;99.90;;;;;;5118585;28;20219;-78
2023/12/10 11:23:09;;;;;;;15.33;3.73;;;10.50;99.90;;;;;;5116216;28;20181;-78
2023/12/10 11:25:35;;;;;;;22.17;4.10;;;10.50;99.90;;;;;;5117685;28;20211;-76
2023/12/10 11:28:13;;;;;;;19.87;4.10;;;10.60;99.90;;;;;;5114828;28;20193;-76
2023/12/10 11:30:40;;;;;;;16.13;3.80;;;10.60;99.90;;;;;;5115970;28;20189;-77
2023/12/10 11:33:07;;;;;;;18.83;3.93;;;10.70;99.90;;;;;;5117028;28;20190;-78
2023/12/10 11:35:32;;;;;;;18.73;3.60;;;10.70;99.90;;;;;;5115144;28;20260;-77
2023/12/10 11:37:58;;;;;;;21.70;3.73;;;10.60;99.90;;;;;;5115520;28;20677;-79
2023/12/10 11:40:24;;;;;;;23.83;4.07;;;10.70;99.90;;;;;;5117834;27;20629;-78
2023/12/10 11:42:50;;;;;;;19.00;4.27;;;10.60;99.90;;;;;;5111728;28;20179;-80
2023/12/10 11:45:15;;;;;;;20.20;4.07;;;10.70;99.90;;;;;;5099769;28;20166;-78
2023/12/10 11:47:44;;;;;;;20.23;4.30;;;10.70;99.90;;;;;;5095420;28;20191;-77
2023/12/10 11:50:11;;;;;;;25.87;4.67;;;10.70;99.90;;;;;;5094753;28;20695;-78
2023/12/10 11:52:37;;;;;;;22.17;4.60;;;10.70;99.90;;;;;;5095573;28;20310;-78
2023/12/10 11:55:05;;;;;;;17.57;3.83;;;10.70;99.90;;;;;;5094155;28;20297;-77
2023/12/10 11:57:31;;;;;;;23.07;4.10;;;10.70;99.90;;;;;;5095188;28;20195;-77
2023/12/10 11:59:56;;;;;;;18.17;4.10;;;10.70;99.90;;;;;;5093215;28;20269;-77
2023/12/10 12:02:23;;;;;;;19.60;4.60;;;10.70;99.90;;;;;;5095888;28;20170;-79
2023/12/10 12:04:51;;;;;;;18.53;4.43;;;10.70;99.90;;;;;;5095826;28;20727;-77
2023/12/10 12:07:27;;;;;;;24.77;4.73;;;10.80;99.90;;;;;;5093494;28;20247;-76
2023/12/10 12:09:54;;;;;;;16.10;4.00;;;10.80;99.90;;;;;;5095660;28;20215;-76
2023/12/10 12:12:21;;;;;;;22.83;3.87;;;10.80;99.90;;;;;;5095079;28;20185;-76
2023/12/10 12:14:47;;;;;;;23.30;4.00;;;10.80;99.90;;;;;;5097022;28;20757;-79
2023/12/10 12:17:15;;;;;;;18.60;4.17;;;10.70;99.90;;;;;;5097209;28;20191;-79
2023/12/10 12:19:41;;;;;;;20.43;4.57;;;10.80;99.90;;;;;;5095412;28;20181;-79
2023/12/10 12:22:08;;;;;;;26.93;4.47;;;10.80;99.90;;;;;;5097333;28;20261;-79
2023/12/10 12:24:33;;;;;;;19.20;4.53;;;10.80;99.90;;;;;;5095937;28;20190;-79
2023/12/10 12:26:59;;;;;;;26.70;4.00;;;10.90;99.90;;;;;;5096997;28;20190;-79
2023/12/10 12:29:25;;;;;;;23.17;4.03;;;10.90;99.90;;;;;;5098620;28;20182;-79
2023/12/10 12:31:50;;;;;;;23.03;3.97;;;10.90;99.90;;;;;;5112403;28;20190;-79
2023/12/10 12:34:16;;;;;;;24.57;4.47;;;10.80;99.90;;;;;;5110185;28;20225;-79
2023/12/10 12:36:42;;;;;;;16.40;4.23;;;10.80;99.90;;;;;;5100715;28;20194;-79